Time;durP1;ratioP1;P1;durP2;ratioP2;P2;SDS_P1;SDS_P2;PMS_P1;PMS_P2;Temp;Humidity;BMP_temperature;BMP_pressure;BME280_temperature;BME280_humidity;BME280_pressure;Samples;Min_cycle;Max_cycle;Signal;HPM_P1;HPM_P2
2022/05/24 00:00:55;;;;;;;4.95;2.08;;;;;;;;;;5070999;28;20045;-83
2022/05/24 00:03:20;;;;;;;6.75;2.22;;;;;;;;;;5012024;28;20025;-82
2022/05/24 00:05:46;;;;;;;5.65;2.05;;;;;;;;;;5033316;28;20028;-82
2022/05/24 00:08:11;;;;;;;5.75;2.80;;;;;;;;;;5018925;28;20034;-82
2022/05/24 00:10:37;;;;;;;8.25;2.05;;;;;;;;;;5038992;28;20033;-82
2022/05/24 00:13:03;;;;;;;4.47;2.63;;;;;;;;;;5040283;28;20029;-82
2022/05/24 00:15:30;;;;;;;11.10;3.05;;;;;;;;;;5061854;28;20062;-84
2022/05/24 00:18:04;;;;;;;6.68;2.17;;;;;;;;;;5054370;28;20032;-83
2022/05/24 00:20:31;;;;;;;10.02;2.33;;;;;;;;;;5041154;28;20033;-83
2022/05/24 00:22:58;;;;;;;6.57;2.13;;;;;;;;;;5038969;28;20044;-84
2022/05/24 00:25:24;;;;;;;7.80;2.80;;;;;;;;;;5004740;28;20102;-83
2022/05/24 00:27:50;;;;;;;6.53;2.30;;;;;;;;;;5018417;28;20049;-83
2022/05/24 00:30:17;;;;;;;7.40;2.10;;;;;;;;;;5040265;28;20116;-84
2022/05/24 00:32:42;;;;;;;8.60;2.10;;;;;;;;;;5041258;28;20040;-82
2022/05/24 00:35:08;;;;;;;8.77;2.67;;;;;;;;;;5013111;28;20037;-84
2022/05/24 00:37:35;;;;;;;7.70;2.15;;;;;;;;;;5065716;28;20523;-82
2022/05/24 00:40:01;;;;;;;10.52;2.33;;;;;;;;;;5031727;28;20033;-82
2022/05/24 00:42:28;;;;;;;6.72;2.03;;;;;;;;;;5011692;28;20452;-82
2022/05/24 00:45:02;;;;;;;8.00;2.30;;;;;;;;;;5017286;28;20029;-82
2022/05/24 00:47:33;;;;;;;7.78;2.00;;;;;;;;;;5008420;28;20067;-80
2022/05/24 00:50:07;;;;;;;5.18;2.00;;;;;;;;;;5042955;28;20569;-82
2022/05/24 00:52:39;;;;;;;5.55;2.05;;;;;;;;;;5031313;28;20549;-84
2022/05/24 00:55:06;;;;;;;6.75;1.80;;;;;;;;;;5066226;28;20506;-82
2022/05/24 00:57:31;;;;;;;9.75;2.30;;;;;;;;;;5057129;28;20425;-83
2022/05/24 01:00:12;;;;;;;11.35;2.47;;;;;;;;;;5011117;28;20132;-83
2022/05/24 01:02:37;;;;;;;6.90;2.40;;;;;;;;;;5042849;28;20025;-84
2022/05/24 01:05:08;;;;;;;8.95;2.17;;;;;;;;;;5028576;28;20495;-82
2022/05/24 01:07:33;;;;;;;6.88;1.88;;;;;;;;;;5068022;28;20021;-81
2022/05/24 01:10:01;;;;;;;6.93;2.17;;;;;;;;;;5052814;28;20048;-79
2022/05/24 01:12:32;;;;;;;6.03;2.40;;;;;;;;;;5043951;28;20052;-82
2022/05/24 01:14:59;;;;;;;5.57;2.28;;;;;;;;;;5067254;28;20048;-81
2022/05/24 01:17:25;;;;;;;7.63;1.90;;;;;;;;;;5066095;28;20030;-82
2022/05/24 01:19:50;;;;;;;9.80;2.30;;;;;;;;;;5047012;28;20035;-80
2022/05/24 01:22:35;;;;;;;4.72;1.83;;;;;;;;;;5049705;28;20036;-83
2022/05/24 01:25:27;;;;;;;5.13;1.83;;;;;;;;;;5037010;28;20025;-83
2022/05/24 01:27:52;;;;;;;7.32;1.98;;;;;;;;;;5043785;28;20060;-82
2022/05/24 01:30:18;;;;;;;10.00;2.25;;;;;;;;;;5053633;28;20044;-82
2022/05/24 01:38:24;;;;;;;5.85;2.03;;;;;;;;;;5056789;28;20036;-82
2022/05/24 01:40:51;;;;;;;9.35;2.20;;;;;;;;;;5054617;28;20044;-82
2022/05/24 01:43:17;;;;;;;6.57;1.77;;;;;;;;;;5070009;28;20025;-82
2022/05/24 01:45:49;;;;;;;8.98;2.42;;;;;;;;;;5035172;28;20029;-82
2022/05/24 01:48:17;;;;;;;9.15;2.00;;;;;;;;;;5066736;28;20028;-83
2022/05/24 01:50:44;;;;;;;6.65;2.08;;;;;;;;;;5037474;28;20075;-82
2022/05/24 01:53:17;;;;;;;7.15;2.30;;;;;;;;;;5037890;28;20048;-84
2022/05/24 01:55:45;;;;;;;5.75;1.80;;;;;;;;;;5034577;28;20024;-84
2022/05/24 01:58:12;;;;;;;5.40;1.90;;;;;;;;;;5050353;28;20029;-84
2022/05/24 02:00:40;;;;;;;6.53;1.80;;;;;;;;;;5060367;28;20039;-84
2022/05/24 02:03:06;;;;;;;7.50;2.00;;;;;;;;;;5077814;28;20048;-84
2022/05/24 02:05:36;;;;;;;7.10;1.50;;;;;;;;;;5077210;28;20037;-83
2022/05/24 02:08:03;;;;;;;3.20;1.70;;;;;;;;;;5058823;28;20029;-82
2022/05/24 02:10:34;;;;;;;8.13;3.63;;;;;;;;;;5036647;28;20041;-83
2022/05/24 02:13:00;;;;;;;4.18;1.88;;;;;;;;;;5029654;28;20781;-83
2022/05/24 02:15:27;;;;;;;4.90;1.95;;;;;;;;;;5048878;28;20112;-83
2022/05/24 02:17:59;;;;;;;5.43;1.67;;;;;;;;;;5058330;28;20029;-83
2022/05/24 02:20:27;;;;;;;3.58;1.70;;;;;;;;;;5065108;28;20043;-83
2022/05/24 02:22:53;;;;;;;7.82;1.85;;;;;;;;;;5025994;28;20041;-84
2022/05/24 02:25:43;;;;;;;3.58;1.75;;;;;;;;;;5019431;28;20027;-83
2022/05/24 02:28:10;;;;;;;5.53;1.90;;;;;;;;;;5044166;28;20052;-84
2022/05/24 02:30:44;;;;;;;4.68;1.60;;;;;;;;;;5024229;28;20063;-82
2022/05/24 02:33:09;;;;;;;4.28;1.50;;;;;;;;;;5000363;28;20033;-81
2022/05/24 02:35:35;;;;;;;5.10;1.63;;;;;;;;;;4999371;28;20395;-82
2022/05/24 02:38:00;;;;;;;7.05;2.00;;;;;;;;;;5046916;28;20059;-82
2022/05/24 02:43:10;;;;;;;3.65;1.52;;;;;;;;;;5034954;28;20475;-83
2022/05/24 02:45:35;;;;;;;6.25;2.25;;;;;;;;;;5044087;28;20111;-83
2022/05/24 02:48:01;;;;;;;3.30;1.45;;;;;;;;;;5054127;28;20123;-83
2022/05/24 02:50:26;;;;;;;6.75;1.80;;;;;;;;;;5067211;28;20383;-83
2022/05/24 02:52:52;;;;;;;4.03;1.58;;;;;;;;;;5022375;28;20468;-83
2022/05/24 02:55:18;;;;;;;3.25;1.63;;;;;;;;;;5023761;28;20039;-83
2022/05/24 02:57:45;;;;;;;4.40;1.60;;;;;;;;;;5009992;28;20120;-83
2022/05/24 03:00:22;;;;;;;4.30;1.40;;;;;;;;;;4983370;28;20460;-85
2022/05/24 03:02:47;;;;;;;2.80;1.63;;;;;;;;;;5063325;28;20044;-84
2022/05/24 03:05:13;;;;;;;2.58;1.40;;;;;;;;;;5036975;28;20025;-83
2022/05/24 03:10:23;;;;;;;5.78;1.80;;;;;;;;;;5046972;28;20039;-83
2022/05/24 03:15:33;;;;;;;3.50;1.40;;;;;;;;;;5071851;28;20070;-83
2022/05/24 03:17:59;;;;;;;3.05;1.40;;;;;;;;;;5044995;28;20123;-82
2022/05/24 03:20:26;;;;;;;7.35;1.45;;;;;;;;;;5037720;28;20131;-82
2022/05/24 03:22:51;;;;;;;3.45;1.50;;;;;;;;;;5043801;28;20036;-81
2022/05/24 03:25:19;;;;;;;5.45;1.50;;;;;;;;;;5039026;28;20506;-81
2022/05/24 03:27:47;;;;;;;4.38;1.42;;;;;;;;;;5046498;28;20025;-82
2022/05/24 03:30:13;;;;;;;;;;;;;;;;;;5049139;28;20142;-84
2022/05/24 03:32:38;;;;;;;3.88;1.83;;;;;;;;;;5058635;28;20239;-84
2022/05/24 03:35:04;;;;;;;5.43;2.13;;;;;;;;;;5060759;28;20025;-84
2022/05/24 03:37:30;;;;;;;3.97;2.20;;;;;;;;;;5069147;28;20017;-84
2022/05/24 03:39:55;;;;;;;2.75;1.70;;;;;;;;;;5011826;28;20115;-83
2022/05/24 03:42:21;;;;;;;4.57;2.10;;;;;;;;;;5052230;28;20391;-81
2022/05/24 03:44:46;;;;;;;5.47;1.98;;;;;;;;;;5054321;28;20041;-79
2022/05/24 03:47:12;;;;;;;5.68;2.55;;;;;;;;;;5067318;28;20021;-81
2022/05/24 03:49:37;;;;;;;3.55;1.95;;;;;;;;;;5042367;28;20103;-81
2022/05/24 03:52:03;;;;;;;6.40;1.75;;;;;;;;;;5042609;28;20029;-80
2022/05/24 03:54:28;;;;;;;4.45;2.60;;;;;;;;;;5049533;28;20509;-80
2022/05/24 03:59:38;;;;;;;3.85;2.17;;;;;;;;;;5053216;28;20492;-81
2022/05/24 04:02:04;;;;;;;4.15;2.17;;;;;;;;;;5050425;28;20033;-81
2022/05/24 04:04:30;;;;;;;5.60;2.40;;;;;;;;;;5067205;28;20108;-81
2022/05/24 04:06:55;;;;;;;5.95;2.53;;;;;;;;;;5068513;28;20511;-83
2022/05/24 04:09:21;;;;;;;6.60;2.25;;;;;;;;;;5017310;28;20044;-82
2022/05/24 04:11:47;;;;;;;5.47;2.22;;;;;;;;;;5042992;28;20067;-81
2022/05/24 04:14:12;;;;;;;5.72;2.90;;;;;;;;;;5023033;28;20033;-82
2022/05/24 04:16:37;;;;;;;5.05;2.22;;;;;;;;;;5034103;28;20410;-83
2022/05/24 04:19:03;;;;;;;3.78;2.55;;;;;;;;;;5067339;28;20452;-84
2022/05/24 04:21:29;;;;;;;4.63;2.83;;;;;;;;;;5042466;28;20025;-82
2022/05/24 04:23:54;;;;;;;7.70;2.90;;;;;;;;;;5046334;28;20095;-81
2022/05/24 04:26:20;;;;;;;9.48;3.08;;;;;;;;;;5054020;28;20028;-80
2022/05/24 04:28:45;;;;;;;6.43;3.10;;;;;;;;;;5038875;28;20026;-81
2022/05/24 04:31:11;;;;;;;5.25;2.92;;;;;;;;;;5040409;28;20025;-81
2022/05/24 04:33:37;;;;;;;6.30;3.88;;;;;;;;;;5026605;28;20048;-82
2022/05/24 04:36:03;;;;;;;7.25;4.20;;;;;;;;;;5071886;28;20040;-81
2022/05/24 04:38:28;;;;;;;7.22;4.05;;;;;;;;;;5024426;28;20029;-81
2022/05/24 04:43:38;;;;;;;7.75;3.70;;;;;;;;;;5067255;22;20048;-82
2022/05/24 04:46:04;;;;;;;8.75;4.22;;;;;;;;;;5090989;28;20040;-83
2022/05/24 04:48:30;;;;;;;8.55;4.43;;;;;;;;;;5096471;28;20547;-81
2022/05/24 04:50:56;;;;;;;9.45;4.20;;;;;;;;;;5095940;28;20024;-79
2022/05/24 04:53:22;;;;;;;7.68;4.00;;;;;;;;;;5057981;28;20014;-82
2022/05/24 04:55:49;;;;;;;6.65;4.30;;;;;;;;;;5067191;28;20021;-83
2022/05/24 04:58:21;;;;;;;7.03;3.95;;;;;;;;;;5079888;28;20021;-82
2022/05/24 05:00:48;;;;;;;7.43;4.03;;;;;;;;;;5091397;28;20076;-83
2022/05/24 05:03:17;;;;;;;7.45;4.20;;;;;;;;;;5062140;28;20040;-82
2022/05/24 05:05:44;;;;;;;7.50;4.20;;;;;;;;;;5073708;28;20037;-82
2022/05/24 05:08:10;;;;;;;10.45;5.30;;;;;;;;;;5070335;28;20112;-81
2022/05/24 05:10:37;;;;;;;8.60;4.25;;;;;;;;;;5053582;28;20032;-80
2022/05/24 05:13:04;;;;;;;6.38;4.20;;;;;;;;;;5038301;28;20044;-81
2022/05/24 05:15:31;;;;;;;8.23;4.07;;;;;;;;;;5042577;28;20036;-80
2022/05/24 05:18:04;;;;;;;7.53;4.30;;;;;;;;;;5048215;28;20549;-81
2022/05/24 05:20:41;;;;;;;6.97;4.50;;;;;;;;;;5048983;28;20044;-80
2022/05/24 05:23:11;;;;;;;7.25;3.50;;;;;;;;;;5050471;28;20519;-81
2022/05/24 05:25:37;;;;;;;10.00;4.35;;;;;;;;;;5042325;28;20060;-80
2022/05/24 05:28:02;;;;;;;6.30;4.72;;;;;;;;;;5042217;28;20037;-81
2022/05/24 05:33:14;;;;;;;8.75;4.90;;;;;;;;;;5053285;28;20105;-81
2022/05/24 05:35:39;;;;;;;11.05;5.20;;;;;;;;;;5032729;28;20060;-81
2022/05/24 05:38:05;;;;;;;10.93;5.28;;;;;;;;;;5060459;28;20480;-81
2022/05/24 05:40:30;;;;;;;7.28;5.22;;;;;;;;;;5044693;28;20033;-81
2022/05/24 05:42:56;;;;;;;8.48;5.07;;;;;;;;;;5049167;28;20055;-82
2022/05/24 05:45:24;;;;;;;9.33;5.63;;;;;;;;;;5039220;28;20021;-83
2022/05/24 05:47:52;;;;;;;8.60;5.30;;;;;;;;;;5048466;28;20771;-81
2022/05/24 05:50:19;;;;;;;8.43;5.72;;;;;;;;;;5013558;28;20108;-81
2022/05/24 05:52:45;;;;;;;8.88;5.32;;;;;;;;;;5049167;28;20053;-82
2022/05/24 05:55:12;;;;;;;8.85;5.60;;;;;;;;;;5046601;28;20025;-84
2022/05/24 05:57:38;;;;;;;8.65;5.05;;;;;;;;;;5061525;28;20029;-83
2022/05/24 06:00:04;;;;;;;8.70;5.70;;;;;;;;;;5017493;28;20040;-80
2022/05/24 06:02:42;;;;;;;;;;;;;;;;;;5036628;28;20354;-81
2022/05/24 06:05:08;;;;;;;10.43;5.75;;;;;;;;;;5036007;28;19913;-81
2022/05/24 06:07:33;;;;;;;8.73;5.75;;;;;;;;;;5044868;28;20085;-82
2022/05/24 06:09:59;;;;;;;9.50;4.90;;;;;;;;;;5054240;28;20481;-82
2022/05/24 06:12:25;;;;;;;7.35;4.80;;;;;;;;;;5051968;28;20041;-82
2022/05/24 06:14:50;;;;;;;9.35;5.13;;;;;;;;;;5054264;28;20033;-81
2022/05/24 06:17:17;;;;;;;7.95;5.32;;;;;;;;;;5048995;28;20506;-81
2022/05/24 06:19:44;;;;;;;9.23;5.18;;;;;;;;;;5053140;28;20036;-82
2022/05/24 06:22:10;;;;;;;9.43;5.85;;;;;;;;;;5048679;28;20032;-83
2022/05/24 06:24:35;;;;;;;9.20;5.00;;;;;;;;;;5049772;28;20029;-81
2022/05/24 06:27:02;;;;;;;11.02;5.70;;;;;;;;;;5033404;28;20547;-83
2022/05/24 06:29:27;;;;;;;8.70;5.70;;;;;;;;;;5041757;28;20112;-81
2022/05/24 06:31:53;;;;;;;12.73;6.25;;;;;;;;;;5044759;28;20033;-84
2022/05/24 06:34:19;;;;;;;10.88;6.35;;;;;;;;;;5044943;28;20166;-81
2022/05/24 06:36:44;;;;;;;9.82;5.70;;;;;;;;;;5034619;28;20028;-83
2022/05/24 06:39:10;;;;;;;11.07;5.88;;;;;;;;;;5036518;28;20025;-81
2022/05/24 06:41:35;;;;;;;8.55;5.88;;;;;;;;;;5045198;28;20025;-84
2022/05/24 06:44:01;;;;;;;8.52;5.40;;;;;;;;;;5042081;28;20039;-82
2022/05/24 06:46:26;;;;;;;7.70;5.55;;;;;;;;;;5037136;28;20503;-82
2022/05/24 06:48:52;;;;;;;10.63;5.65;;;;;;;;;;5048092;28;20025;-84
2022/05/24 06:51:18;;;;;;;9.52;5.75;;;;;;;;;;5039777;28;20086;-83
2022/05/24 06:53:44;;;;;;;8.35;5.50;;;;;;;;;;5036386;28;20025;-81
2022/05/24 06:56:10;;;;;;;8.15;5.57;;;;;;;;;;5059788;28;20086;-83
2022/05/24 06:58:36;;;;;;;6.60;5.20;;;;;;;;;;5055123;28;20029;-80
2022/05/24 07:03:47;;;;;;;9.88;5.32;;;;;;;;;;5048688;28;20045;-84
2022/05/24 07:06:15;;;;;;;10.93;5.70;;;;;;;;;;5045621;28;20036;-79
2022/05/24 07:08:44;;;;;;;10.25;4.72;;;;;;;;;;5027829;28;20125;-78
2022/05/24 07:11:10;;;;;;;6.55;4.43;;;;;;;;;;5046362;28;20030;-78
2022/05/24 07:13:36;;;;;;;10.60;4.20;;;;;;;;;;5038771;28;20029;-82
2022/05/24 07:16:02;;;;;;;9.38;4.03;;;;;;;;;;5038775;28;20460;-80
2022/05/24 07:18:28;;;;;;;5.60;3.80;;;;;;;;;;5062250;28;20106;-82
2022/05/24 07:20:54;;;;;;;5.40;3.78;;;;;;;;;;5032645;28;20088;-81
2022/05/24 07:23:21;;;;;;;5.47;3.45;;;;;;;;;;5062822;28;20360;-80
2022/05/24 07:25:46;;;;;;;7.65;4.32;;;;;;;;;;5044201;28;20176;-80
2022/05/24 07:28:15;;;;;;;7.25;4.45;;;;;;;;;;5030255;28;20484;-83
2022/05/24 07:30:40;;;;;;;;;;;;;;;;;;5047912;28;20017;-80
2022/05/24 07:33:06;;;;;;;6.43;3.00;;;;;;;;;;5034723;28;19915;-81
2022/05/24 07:35:32;;;;;;;8.65;3.20;;;;;;;;;;5053929;28;20033;-79
2022/05/24 07:37:58;;;;;;;8.10;3.17;;;;;;;;;;5030250;28;20044;-81
2022/05/24 07:45:57;;;;;;;8.57;3.08;;;;;;;;;;5041024;28;20043;-84
2022/05/24 07:48:23;;;;;;;5.55;2.70;;;;;;;;;;5036657;28;20121;-85
2022/05/24 07:50:49;;;;;;;5.45;2.70;;;;;;;;;;5028240;28;20037;-83
2022/05/24 07:53:15;;;;;;;4.57;3.13;;;;;;;;;;5029923;28;20065;-82
2022/05/24 07:55:40;;;;;;;5.40;3.17;;;;;;;;;;5029879;28;20512;-81
2022/05/24 07:58:05;;;;;;;4.70;3.00;;;;;;;;;;5053404;28;20024;-83
2022/05/24 08:00:32;;;;;;;5.28;3.55;;;;;;;;;;5033388;28;20025;-81
2022/05/24 08:02:58;;;;;;;5.78;3.03;;;;;;;;;;5035489;28;20182;-82
2022/05/24 08:05:24;;;;;;;5.50;3.30;;;;;;;;;;5051561;28;20480;-82
2022/05/24 08:07:50;;;;;;;5.03;2.80;;;;;;;;;;5035795;28;20410;-84
2022/05/24 08:10:16;;;;;;;4.70;2.70;;;;;;;;;;5048272;28;20102;-82
2022/05/24 08:12:42;;;;;;;4.07;2.25;;;;;;;;;;5050270;28;20488;-82
2022/05/24 08:15:09;;;;;;;3.85;2.10;;;;;;;;;;5017536;28;20033;-82
2022/05/24 08:17:34;;;;;;;6.47;2.50;;;;;;;;;;5034494;28;20025;-82
2022/05/24 08:20:00;;;;;;;4.57;2.53;;;;;;;;;;5044260;28;20051;-82
2022/05/24 08:22:25;;;;;;;5.40;2.35;;;;;;;;;;5050150;28;20458;-83
2022/05/24 08:24:51;;;;;;;4.30;2.38;;;;;;;;;;5034795;28;20037;-82
2022/05/24 08:27:16;;;;;;;7.30;2.70;;;;;;;;;;5049617;28;20025;-82
2022/05/24 08:29:44;;;;;;;6.88;2.55;;;;;;;;;;5005845;28;20182;-82
2022/05/24 08:32:12;;;;;;;3.35;2.00;;;;;;;;;;5033236;28;20030;-83
2022/05/24 08:34:39;;;;;;;5.53;2.80;;;;;;;;;;5033226;28;20029;-81
2022/05/24 08:37:06;;;;;;;3.30;1.98;;;;;;;;;;5049438;28;20033;-83
2022/05/24 08:39:32;;;;;;;4.57;2.10;;;;;;;;;;5041179;28;20017;-82
2022/05/24 08:42:03;;;;;;;4.72;2.17;;;;;;;;;;5052364;28;20079;-81
2022/05/24 08:50:03;;;;;;;4.00;2.50;;;;;;;;;;5049764;28;20028;-80
2022/05/24 08:52:33;;;;;;;6.13;2.40;;;;;;;;;;5038820;28;20047;-82
2022/05/24 08:54:59;;;;;;;5.57;2.70;;;;;;;;;;5050351;28;20044;-81
2022/05/24 08:57:46;;;;;;;4.50;2.60;;;;;;;;;;5037066;28;20391;-81
2022/05/24 09:00:16;;;;;;;6.15;2.60;;;;;;;;;;5046715;28;20025;-81
2022/05/24 09:02:44;;;;;;;3.78;2.35;;;;;;;;;;5049113;28;20033;-81
2022/05/24 09:05:18;;;;;;;4.00;2.50;;;;;;;;;;5048892;28;20127;-82
2022/05/24 09:07:50;;;;;;;3.70;2.45;;;;;;;;;;5033510;28;20036;-79
2022/05/24 09:10:20;;;;;;;4.45;2.60;;;;;;;;;;5028419;28;20028;-80
2022/05/24 09:12:48;;;;;;;4.97;2.90;;;;;;;;;;5036713;28;20113;-80
2022/05/24 09:15:17;;;;;;;3.58;2.28;;;;;;;;;;5049158;28;20022;-79
2022/05/24 09:17:54;;;;;;;4.55;2.67;;;;;;;;;;5024643;28;20033;-79
2022/05/24 09:20:19;;;;;;;4.82;2.85;;;;;;;;;;5052675;28;20098;-82
2022/05/24 09:22:45;;;;;;;4.47;2.13;;;;;;;;;;5052459;28;20543;-81
2022/05/24 09:25:11;;;;;;;4.32;2.45;;;;;;;;;;5036245;28;20488;-81
2022/05/24 09:27:49;;;;;;;5.47;2.58;;;;;;;;;;5060640;28;20026;-82
2022/05/24 09:30:30;;;;;;;4.25;2.50;;;;;;;;;;5061544;28;20487;-77
2022/05/24 09:33:14;;;;;;;4.53;2.42;;;;;;;;;;5036326;28;20026;-79
2022/05/24 09:35:41;;;;;;;3.35;2.17;;;;;;;;;;5051589;28;20031;-80
2022/05/24 09:38:16;;;;;;;4.00;2.30;;;;;;;;;;5068579;28;20488;-78
2022/05/24 09:40:44;;;;;;;7.05;2.50;;;;;;;;;;5036652;28;20033;-81
2022/05/24 09:43:19;;;;;;;4.63;2.30;;;;;;;;;;5048625;28;20029;-80
2022/05/24 09:45:45;;;;;;;3.50;1.75;;;;;;;;;;5023379;28;20460;-79
2022/05/24 09:48:20;;;;;;;4.20;2.15;;;;;;;;;;5040824;28;20037;-80
2022/05/24 09:50:48;;;;;;;3.22;2.08;;;;;;;;;;5049520;28;20052;-79
2022/05/24 09:53:22;;;;;;;3.22;1.90;;;;;;;;;;5037787;28;20059;-80
2022/05/24 09:55:55;;;;;;;4.80;2.15;;;;;;;;;;5047996;28;20102;-79
2022/05/24 09:58:41;;;;;;;5.07;2.15;;;;;;;;;;5042018;28;20043;-78
2022/05/24 10:01:09;;;;;;;4.15;1.90;;;;;;;;;;5024750;28;20524;-79
2022/05/24 10:03:34;;;;;;;4.18;1.95;;;;;;;;;;5055722;28;20029;-78
2022/05/24 10:06:19;;;;;;;3.70;1.98;;;;;;;;;;5047996;28;20025;-78
2022/05/24 10:08:45;;;;;;;3.83;2.15;;;;;;;;;;5047675;28;20029;-79
2022/05/24 10:11:17;;;;;;;3.63;2.28;;;;;;;;;;5036352;28;20028;-78
2022/05/24 10:13:51;;;;;;;6.00;3.25;;;;;;;;;;5031854;28;20037;-79
2022/05/24 10:16:22;;;;;;;6.18;2.20;;;;;;;;;;5044790;28;20056;-78
2022/05/24 10:18:51;;;;;;;6.68;1.92;;;;;;;;;;5051568;28;20027;-79
2022/05/24 10:21:29;;;;;;;3.38;1.88;;;;;;;;;;5046921;28;20028;-79
2022/05/24 10:24:15;;;;;;;4.30;2.20;;;;;;;;;;5030648;28;20044;-78
2022/05/24 10:26:50;;;;;;;5.00;2.00;;;;;;;;;;5047527;28;20037;-80
2022/05/24 10:29:21;;;;;;;4.85;2.20;;;;;;;;;;5029036;28;20044;-80
2022/05/24 10:31:55;;;;;;;4.93;1.92;;;;;;;;;;5041178;28;20086;-81
2022/05/24 10:39:54;;;;;;;4.22;2.00;;;;;;;;;;5047286;28;20053;-79
2022/05/24 10:42:39;;;;;;;8.45;2.42;;;;;;;;;;5044330;28;20112;-78
2022/05/24 10:45:07;;;;;;;7.72;1.80;;;;;;;;;;5083677;22;20785;-79
2022/05/24 10:47:51;;;;;;;8.80;1.70;;;;;;;;;;5076684;28;20024;-79
2022/05/24 10:50:20;;;;;;;5.63;1.90;;;;;;;;;;5076450;28;20426;-79
2022/05/24 10:52:49;;;;;;;4.75;1.92;;;;;;;;;;5044873;28;20024;-79
2022/05/24 10:55:17;;;;;;;;;;;;;;;;;;5053362;28;20564;-78
2022/05/24 10:57:46;;;;;;;7.47;2.33;;;;;;;;;;5041052;28;19909;-79
2022/05/24 11:00:18;;;;;;;6.43;2.33;;;;;;;;;;5039432;28;20059;-78
2022/05/24 11:02:53;;;;;;;6.43;2.10;;;;;;;;;;5053507;28;20036;-79
2022/05/24 11:05:27;;;;;;;4.75;1.73;;;;;;;;;;5039204;28;20033;-79
2022/05/24 11:08:13;;;;;;;7.90;2.00;;;;;;;;;;5056294;28;20025;-81
2022/05/24 11:10:41;;;;;;;4.40;1.95;;;;;;;;;;5027997;28;20037;-80
2022/05/24 11:13:11;;;;;;;5.07;2.15;;;;;;;;;;5038050;28;20020;-79
2022/05/24 11:15:49;;;;;;;6.50;2.10;;;;;;;;;;5053729;28;20028;-80
2022/05/24 11:18:23;;;;;;;7.47;2.13;;;;;;;;;;5038012;28;20033;-79
2022/05/24 11:20:57;;;;;;;4.72;1.73;;;;;;;;;;5054150;28;20043;-80
2022/05/24 11:23:49;;;;;;;5.20;1.98;;;;;;;;;;5054696;28;20085;-76
2022/05/24 11:26:17;;;;;;;18.02;2.75;;;;;;;;;;5068510;28;20060;-79
2022/05/24 11:28:47;;;;;;;4.13;2.00;;;;;;;;;;5037307;28;20093;-79
2022/05/24 11:31:34;;;;;;;7.55;2.40;;;;;;;;;;5037802;28;20440;-79
2022/05/24 11:34:01;;;;;;;2.37;1.20;;;;;;;;;;5039956;28;20033;-78
2022/05/24 11:36:27;;;;;;;3.65;1.10;;;;;;;;;;5062030;28;20395;-80
2022/05/24 11:38:53;;;;;;;2.90;0.90;;;;;;;;;;5066881;28;20048;-77
2022/05/24 11:41:27;;;;;;;1.40;0.70;;;;;;;;;;5044050;28;20036;-79
2022/05/24 11:43:52;;;;;;;1.30;0.90;;;;;;;;;;5042209;28;20037;-77
2022/05/24 11:46:39;;;;;;;1.33;0.80;;;;;;;;;;5052890;28;20403;-77
2022/05/24 11:49:09;;;;;;;1.92;1.00;;;;;;;;;;5062473;28;20050;-77
2022/05/24 11:51:48;;;;;;;4.28;1.00;;;;;;;;;;5059926;28;20028;-79
2022/05/24 11:54:21;;;;;;;2.58;0.80;;;;;;;;;;5076520;28;20024;-77
2022/05/24 11:56:56;;;;;;;1.65;0.60;;;;;;;;;;5022730;28;20032;-79
2022/05/24 11:59:40;;;;;;;2.58;0.80;;;;;;;;;;5021683;28;20090;-79
2022/05/24 12:02:32;;;;;;;2.25;0.70;;;;;;;;;;5034463;28;20119;-79
2022/05/24 12:07:56;;;;;;;3.67;0.77;;;;;;;;;;5047442;28;20029;-79
2022/05/24 12:10:22;;;;;;;1.05;0.40;;;;;;;;;;5061084;28;20062;-78
2022/05/24 12:13:13;;;;;;;1.02;0.40;;;;;;;;;;5040210;28;20287;-78
2022/05/24 12:15:40;;;;;;;2.45;0.77;;;;;;;;;;5043446;28;20039;-79
2022/05/24 12:18:06;;;;;;;2.28;0.63;;;;;;;;;;5064485;28;20111;-80
2022/05/24 12:20:35;;;;;;;1.48;0.57;;;;;;;;;;5063556;28;20036;-78
2022/05/24 12:23:06;;;;;;;1.98;0.50;;;;;;;;;;5060344;28;20041;-79
2022/05/24 12:25:50;;;;;;;4.07;0.75;;;;;;;;;;5077602;28;20063;-78
2022/05/24 12:28:16;;;;;;;1.60;0.68;;;;;;;;;;5058653;28;20063;-79
2022/05/24 12:30:49;;;;;;;1.90;0.47;;;;;;;;;;5042923;28;20083;-78
2022/05/24 12:33:19;;;;;;;7.93;1.00;;;;;;;;;;5043722;28;20483;-79
2022/05/24 12:35:56;;;;;;;2.85;0.98;;;;;;;;;;5045080;28;20119;-77
2022/05/24 12:38:25;;;;;;;4.05;0.90;;;;;;;;;;5079345;28;20153;-80
2022/05/24 12:41:04;;;;;;;2.85;0.80;;;;;;;;;;5045969;28;20032;-79
2022/05/24 12:43:30;;;;;;;3.95;1.20;;;;;;;;;;5078055;28;20055;-77
2022/05/24 12:45:59;;;;;;;2.80;0.80;;;;;;;;;;5075919;28;20060;-78
2022/05/24 12:48:25;;;;;;;;;;;;;;;;;;5077982;28;20126;-78
2022/05/24 12:50:58;;;;;;;2.83;0.80;;;;;;;;;;5041313;28;19909;-79
2022/05/24 12:53:24;;;;;;;4.78;0.90;;;;;;;;;;5057867;28;20035;-78
2022/05/24 12:55:58;;;;;;;1.90;0.65;;;;;;;;;;5024926;28;20033;-77
2022/05/24 12:58:27;;;;;;;4.00;1.13;;;;;;;;;;5041277;28;20036;-77
2022/05/24 13:01:06;;;;;;;2.22;0.70;;;;;;;;;;5058293;28;20025;-78
2022/05/24 13:03:32;;;;;;;3.20;0.70;;;;;;;;;;5041037;28;20031;-79
2022/05/24 13:06:18;;;;;;;5.60;0.82;;;;;;;;;;5056744;28;20036;-78
2022/05/24 13:08:44;;;;;;;3.78;0.70;;;;;;;;;;5057079;28;20029;-77
2022/05/24 13:11:10;;;;;;;0.90;0.50;;;;;;;;;;5040264;28;20097;-77
2022/05/24 13:13:36;;;;;;;2.95;0.93;;;;;;;;;;5021084;28;20017;-78
2022/05/24 13:16:06;;;;;;;2.60;0.60;;;;;;;;;;5015619;28;20098;-78
2022/05/24 13:18:33;;;;;;;0.70;0.40;;;;;;;;;;5056085;28;20028;-77
2022/05/24 13:21:00;;;;;;;4.82;0.70;;;;;;;;;;5074139;28;20030;-76
2022/05/24 13:23:28;;;;;;;2.08;0.50;;;;;;;;;;5019712;28;20036;-78
2022/05/24 13:26:11;;;;;;;2.15;1.00;;;;;;;;;;5063580;28;20063;-78
2022/05/24 13:28:37;;;;;;;2.42;0.70;;;;;;;;;;5036223;28;20033;-76
2022/05/24 13:33:52;;;;;;;3.63;0.60;;;;;;;;;;5073853;28;20021;-78
2022/05/24 13:36:30;;;;;;;2.33;0.60;;;;;;;;;;5055762;28;20025;-79
2022/05/24 13:39:01;;;;;;;3.15;0.98;;;;;;;;;;5039361;28;20040;-77
2022/05/24 13:41:36;;;;;;;4.53;0.75;;;;;;;;;;5039986;28;20107;-78
2022/05/24 13:44:06;;;;;;;2.88;0.60;;;;;;;;;;5020293;28;20032;-77
2022/05/24 13:46:45;;;;;;;2.60;0.70;;;;;;;;;;5018428;28;20032;-78
2022/05/24 13:49:24;;;;;;;2.65;0.77;;;;;;;;;;5023730;28;20025;-77
2022/05/24 13:51:49;;;;;;;1.63;0.40;;;;;;;;;;5073410;28;20020;-77
2022/05/24 13:54:32;;;;;;;2.25;0.68;;;;;;;;;;5074036;28;20436;-79
2022/05/24 13:56:58;;;;;;;7.30;0.85;;;;;;;;;;5037969;28;20025;-79
2022/05/24 13:59:27;;;;;;;1.73;0.60;;;;;;;;;;5035284;28;20170;-81
2022/05/24 14:01:55;;;;;;;1.25;0.40;;;;;;;;;;5028883;28;20531;-77
2022/05/24 14:04:26;;;;;;;2.42;0.80;;;;;;;;;;5038528;28;20120;-78
2022/05/24 14:06:59;;;;;;;1.38;0.50;;;;;;;;;;5054671;28;20554;-77
2022/05/24 14:09:26;;;;;;;2.28;0.40;;;;;;;;;;5022350;28;20024;-78
2022/05/24 14:11:51;;;;;;;1.02;0.45;;;;;;;;;;5072807;28;20027;-78
2022/05/24 14:14:20;;;;;;;5.75;0.80;;;;;;;;;;5055082;28;20050;-79
2022/05/24 14:16:46;;;;;;;0.65;0.38;;;;;;;;;;5072331;28;20024;-79
2022/05/24 14:19:12;;;;;;;3.50;0.90;;;;;;;;;;5038322;28;20463;-79
2022/05/24 14:21:40;;;;;;;0.93;0.45;;;;;;;;;;5052665;28;20039;-78
2022/05/24 14:24:12;;;;;;;1.35;0.68;;;;;;;;;;5038460;28;20032;-76
2022/05/24 14:26:42;;;;;;;0.93;0.52;;;;;;;;;;5055713;28;20417;-78
2022/05/24 14:29:08;;;;;;;1.40;0.50;;;;;;;;;;5039751;28;20017;-77
2022/05/24 14:31:34;;;;;;;1.60;0.65;;;;;;;;;;5055952;28;20020;-78
2022/05/24 14:34:00;;;;;;;1.10;0.63;;;;;;;;;;5055778;28;20111;-79
2022/05/24 14:36:26;;;;;;;1.38;0.52;;;;;;;;;;5038845;28;20406;-78
2022/05/24 14:38:51;;;;;;;1.65;0.85;;;;;;;;;;5037413;28;20032;-79
2022/05/24 14:41:17;;;;;;;1.77;0.60;;;;;;;;;;5054349;28;20028;-79
2022/05/24 14:43:47;;;;;;;3.40;0.60;;;;;;;;;;5054166;28;20051;-79
2022/05/24 14:46:13;;;;;;;3.78;0.60;;;;;;;;;;5071778;28;20028;-79
2022/05/24 14:48:39;;;;;;;3.22;0.30;;;;;;;;;;5072346;28;20316;-78
2022/05/24 14:51:06;;;;;;;6.55;0.55;;;;;;;;;;5038060;28;20029;-79
2022/05/24 14:53:32;;;;;;;2.67;0.80;;;;;;;;;;5021263;28;20051;-77
2022/05/24 14:55:59;;;;;;;3.90;0.60;;;;;;;;;;5036351;28;20036;-78
2022/05/24 14:58:25;;;;;;;6.28;0.70;;;;;;;;;;5053573;28;20028;-79
2022/05/24 15:00:50;;;;;;;1.60;0.60;;;;;;;;;;5073692;28;20107;-79
2022/05/24 15:03:16;;;;;;;1.35;0.38;;;;;;;;;;5054781;28;20090;-79
2022/05/24 15:05:41;;;;;;;3.70;0.88;;;;;;;;;;5072375;28;20044;-79
2022/05/24 15:16:22;;;;;;;1.17;0.50;;;;;;;;;;5057155;28;20021;-77
2022/05/24 15:18:47;;;;;;;2.85;0.98;;;;;;;;;;5054586;28;20035;-79
2022/05/24 15:21:15;;;;;;;1.55;0.40;;;;;;;;;;5073811;28;20024;-78
2022/05/24 15:23:42;;;;;;;2.77;0.70;;;;;;;;;;5062335;28;20028;-79
2022/05/24 15:26:13;;;;;;;4.03;1.48;;;;;;;;;;5059635;28;20028;-79
2022/05/24 15:28:40;;;;;;;4.88;0.73;;;;;;;;;;5043061;28;20079;-78
2022/05/24 15:31:06;;;;;;;2.17;0.32;;;;;;;;;;5059045;28;20236;-78
2022/05/24 15:33:31;;;;;;;3.90;0.90;;;;;;;;;;5059563;28;20088;-78
2022/05/24 15:35:57;;;;;;;1.50;0.60;;;;;;;;;;5069890;28;20044;-79
2022/05/24 15:38:23;;;;;;;3.47;0.68;;;;;;;;;;5076815;28;20099;-79
2022/05/24 15:40:51;;;;;;;11.30;1.33;;;;;;;;;;5060509;28;20029;-79
2022/05/24 15:43:17;;;;;;;1.55;0.60;;;;;;;;;;5078113;28;20074;-78
2022/05/24 15:45:44;;;;;;;3.97;1.13;;;;;;;;;;5061681;28;20452;-78
2022/05/24 15:48:09;;;;;;;8.93;0.68;;;;;;;;;;5080886;28;20016;-78